createdAt,value
2023-02-13T00:00:39.822Z,4.40
2023-02-13T00:03:25.211Z,4.40
2023-02-13T00:06:11.708Z,4.30
2023-02-13T00:08:56.873Z,4.30
2023-02-13T00:11:42.453Z,4.30
2023-02-13T00:14:27.726Z,4.30
2023-02-13T00:17:13.124Z,4.30
2023-02-13T00:19:58.474Z,4.40
2023-02-13T00:22:43.805Z,4.30
2023-02-13T00:25:29.367Z,4.40
2023-02-13T00:28:14.670Z,4.30
2023-02-13T00:31:08.911Z,4.30
2023-02-13T00:33:54.269Z,4.30
2023-02-13T00:36:39.583Z,4.30
2023-02-13T00:39:24.966Z,4.30
2023-02-13T00:42:10.310Z,4.30
2023-02-13T00:44:55.568Z,4.20
2023-02-13T00:47:41.070Z,4.20
2023-02-13T00:50:26.535Z,4.20
2023-02-13T00:53:11.909Z,4.20
2023-02-13T00:55:57.328Z,4.20
2023-02-13T00:58:42.636Z,4.20
2023-02-13T01:01:28.035Z,4.10
2023-02-13T01:04:13.229Z,4.10
2023-02-13T01:06:58.631Z,4.20
2023-02-13T01:09:44.488Z,4.20
2023-02-13T01:12:29.462Z,4.10
2023-02-13T01:15:15.082Z,4.10
2023-02-13T01:18:00.956Z,4.10
2023-02-13T01:20:57.278Z,4.00
2023-02-13T01:23:43.060Z,4.10
2023-02-13T01:26:28.425Z,4.00
2023-02-13T01:29:14.555Z,4.00
2023-02-13T01:31:59.741Z,3.90
2023-02-13T01:34:45.243Z,4.00
2023-02-13T01:37:30.684Z,4.00
2023-02-13T01:40:17.239Z,4.00
2023-02-13T01:43:02.577Z,3.90
2023-02-13T01:45:53.007Z,4.00
2023-02-13T01:48:38.271Z,4.00
2023-02-13T01:51:30.219Z,3.90
2023-02-13T01:54:23.645Z,3.90
2023-02-13T01:57:18.462Z,3.90
2023-02-13T02:00:12.048Z,3.90
2023-02-13T02:03:21.538Z,3.90
2023-02-13T02:06:11.968Z,3.90
2023-02-13T02:09:01.739Z,3.90
2023-02-13T02:12:03.156Z,4.00
2023-02-13T02:14:50.695Z,4.00
2023-02-13T02:17:35.708Z,4.00
2023-02-13T02:20:36.370Z,3.90
2023-02-13T02:24:09.766Z,3.90
2023-02-13T02:27:08.704Z,3.90
2023-02-13T02:30:03.861Z,3.90
2023-02-13T02:33:02.197Z,4.00
2023-02-13T02:36:25.489Z,3.90
2023-02-13T02:39:43.685Z,3.90
2023-02-13T02:42:59.948Z,3.90
2023-02-13T02:46:03.882Z,3.90
2023-02-13T02:49:29.950Z,3.90
2023-02-13T02:52:20.095Z,3.80
2023-02-13T02:55:35.805Z,3.80
2023-02-13T02:58:58.281Z,3.80
2023-02-13T03:02:03.853Z,3.70
2023-02-13T03:05:11.916Z,3.80
2023-02-13T03:07:57.271Z,3.80
2023-02-13T03:11:01.157Z,3.80
2023-02-13T03:13:49.262Z,3.80
2023-02-13T03:16:53.095Z,3.70
2023-02-13T03:20:44.517Z,3.70
2023-02-13T03:23:53.514Z,3.70
2023-02-13T03:26:50.572Z,3.70
2023-02-13T03:30:07.691Z,3.70
2023-02-13T03:33:01.482Z,3.70
2023-02-13T03:36:12.688Z,3.70
2023-02-13T03:39:21.250Z,3.80
2023-02-13T03:42:21.853Z,3.70
2023-02-13T03:45:37.408Z,3.60
2023-02-13T03:48:53.940Z,3.70
2023-02-13T03:51:46.562Z,3.60
2023-02-13T03:55:01.538Z,3.70
2023-02-13T03:58:08.283Z,3.60
2023-02-13T04:00:57.652Z,3.50
2023-02-13T04:03:58.025Z,3.50
2023-02-13T04:06:52.116Z,3.60
2023-02-13T04:09:42.443Z,3.60
2023-02-13T04:12:49.111Z,3.60
2023-02-13T04:15:40.235Z,3.60
2023-02-13T04:18:32.806Z,3.60
2023-02-13T04:21:18.237Z,3.60
2023-02-13T04:24:03.956Z,3.60
2023-02-13T04:26:49.197Z,3.60
2023-02-13T04:29:34.557Z,3.50
2023-02-13T04:32:19.733Z,3.50
2023-02-13T04:35:05.300Z,3.50
2023-02-13T04:37:50.769Z,3.50
2023-02-13T04:40:36.238Z,3.50
2023-02-13T04:43:21.933Z,3.50
2023-02-13T04:46:07.301Z,3.40
2023-02-13T04:48:52.633Z,3.40
2023-02-13T04:51:37.935Z,3.30
2023-02-13T04:54:23.206Z,3.40
2023-02-13T04:57:08.686Z,3.40
2023-02-13T04:59:54.035Z,3.40
2023-02-13T05:02:39.684Z,3.30
2023-02-13T05:05:25.203Z,3.20
2023-02-13T05:08:10.611Z,3.30
2023-02-13T05:10:56.401Z,3.30
2023-02-13T05:13:41.869Z,3.30
2023-02-13T05:16:27.110Z,3.30
2023-02-13T05:19:13.190Z,3.30
2023-02-13T05:22:17.018Z,3.30
2023-02-13T05:25:02.839Z,3.30
2023-02-13T05:27:48.264Z,3.30
2023-02-13T05:30:33.654Z,3.30
2023-02-13T05:33:19.153Z,3.30
2023-02-13T05:36:04.886Z,3.30
2023-02-13T05:38:50.186Z,3.30
2023-02-13T05:41:35.710Z,3.30
2023-02-13T05:44:21.022Z,3.30
2023-02-13T05:47:06.530Z,3.30
2023-02-13T05:49:51.864Z,3.30
2023-02-13T05:52:37.243Z,3.20
2023-02-13T05:55:22.627Z,3.20
2023-02-13T05:58:09.416Z,3.20
2023-02-13T06:00:58.562Z,3.20
2023-02-13T06:03:44.060Z,3.10
2023-02-13T06:06:29.362Z,3.10
2023-02-13T06:09:14.806Z,3.20
2023-02-13T06:12:00.038Z,3.20
2023-02-13T06:14:45.274Z,3.20
2023-02-13T06:17:30.638Z,3.20
2023-02-13T06:20:15.838Z,3.20
2023-02-13T06:23:01.299Z,3.20
2023-02-13T06:25:46.576Z,3.20
2023-02-13T06:28:32.427Z,3.20
2023-02-13T06:31:17.938Z,3.20
2023-02-13T06:34:03.450Z,3.10
2023-02-13T06:36:48.588Z,3.10
2023-02-13T06:39:34.101Z,3.20
2023-02-13T06:42:19.596Z,3.20
2023-02-13T06:45:05.234Z,3.20
2023-02-13T06:47:51.689Z,3.20
2023-02-13T06:50:37.296Z,3.20
2023-02-13T06:53:24.779Z,3.30
2023-02-13T06:56:11.163Z,3.20
2023-02-13T06:58:56.341Z,3.20
2023-02-13T07:01:41.652Z,3.20
2023-02-13T07:04:27.929Z,3.20
2023-02-13T07:07:13.176Z,3.20
2023-02-13T07:09:58.467Z,3.20
2023-02-13T07:12:45.790Z,3.20
2023-02-13T07:15:35.487Z,3.20
2023-02-13T07:18:20.572Z,3.20
2023-02-13T07:21:06.208Z,3.20
2023-02-13T07:23:52.516Z,3.20
2023-02-13T07:26:37.833Z,3.20
2023-02-13T07:29:23.359Z,3.20
2023-02-13T07:32:09.136Z,3.20
2023-02-13T07:35:01.547Z,3.20
2023-02-13T07:37:47.472Z,3.10
2023-02-13T07:40:32.975Z,3.10
2023-02-13T07:43:18.288Z,3.10
2023-02-13T07:46:04.084Z,3.10
2023-02-13T07:48:51.428Z,3.10
2023-02-13T07:51:36.500Z,3.10
2023-02-13T07:54:21.931Z,3.10
2023-02-13T07:57:07.218Z,3.00
2023-02-13T07:59:52.545Z,3.00
2023-02-13T08:02:37.706Z,3.00
2023-02-13T08:05:23.053Z,3.00
2023-02-13T08:08:08.612Z,2.80
2023-02-13T08:11:13.056Z,2.90
2023-02-13T08:13:58.461Z,2.90
2023-02-13T08:16:43.696Z,3.00
2023-02-13T08:19:29.218Z,3.00
2023-02-13T08:22:14.572Z,3.10
2023-02-13T08:25:00.154Z,3.10
2023-02-13T08:27:45.818Z,3.10
2023-02-13T08:30:31.272Z,3.10
2023-02-13T08:33:16.292Z,3.10
2023-02-13T08:36:06.742Z,3.10
2023-02-13T08:38:52.137Z,3.20
2023-02-13T08:41:37.719Z,3.20
2023-02-13T08:44:23.112Z,3.20
2023-02-13T08:47:09.222Z,3.30
2023-02-13T08:49:54.338Z,3.30
2023-02-13T08:52:39.743Z,3.20
2023-02-13T08:55:24.969Z,3.30
2023-02-13T08:58:10.450Z,3.40
2023-02-13T09:00:55.935Z,3.50
2023-02-13T09:03:41.106Z,3.50
2023-02-13T09:06:27.540Z,3.50
2023-02-13T09:09:12.866Z,3.50
2023-02-13T09:11:58.240Z,3.50
2023-02-13T09:14:43.601Z,3.50
2023-02-13T09:17:28.905Z,3.50
2023-02-13T09:20:14.738Z,3.50
2023-02-13T09:23:00.134Z,3.60
2023-02-13T09:25:45.527Z,3.60
2023-02-13T09:28:32.683Z,3.70
2023-02-13T09:31:20.813Z,3.60
2023-02-13T09:34:06.447Z,3.60
2023-02-13T09:36:53.298Z,3.60
2023-02-13T09:39:38.720Z,3.70
2023-02-13T09:42:31.549Z,3.70
2023-02-13T09:45:19.162Z,3.90
2023-02-13T09:48:06.077Z,3.90
2023-02-13T09:50:51.890Z,4.00
2023-02-13T09:53:38.285Z,5.10
2023-02-13T09:56:39.361Z,5.50
2023-02-13T09:59:45.747Z,5.10
2023-02-13T10:02:58.300Z,4.90
2023-02-13T10:05:57.614Z,4.70
2023-02-13T10:09:07.723Z,4.50
2023-02-13T10:12:27.795Z,4.60
2023-02-13T10:15:44.253Z,4.50
2023-02-13T10:18:41.063Z,4.60
2023-02-13T10:21:32.133Z,4.60
2023-02-13T10:24:38.895Z,4.60
2023-02-13T10:27:28.225Z,4.70
2023-02-13T10:30:27.977Z,4.90
2023-02-13T10:33:30.010Z,4.90
2023-02-13T10:36:29.566Z,5.00
2023-02-13T10:39:25.555Z,5.00
2023-02-13T10:42:22.652Z,5.10
2023-02-13T10:45:41.819Z,5.00
2023-02-13T10:48:55.704Z,5.00
2023-02-13T10:52:02.810Z,5.20
2023-02-13T10:54:55.049Z,5.30
2023-02-13T10:58:18.164Z,5.30
2023-02-13T11:01:13.666Z,5.30
2023-02-13T11:04:05.515Z,5.30
2023-02-13T11:07:04.748Z,5.30
2023-02-13T11:09:53.078Z,5.20
2023-02-13T11:12:38.168Z,5.60
2023-02-13T11:15:32.658Z,5.60
2023-02-13T11:18:23.180Z,5.60
2023-02-13T11:21:20.821Z,5.60
2023-02-13T11:24:16.806Z,5.70
2023-02-13T11:27:09.373Z,5.80
2023-02-13T11:30:02.002Z,5.90
2023-02-13T11:32:56.219Z,5.90
2023-02-13T11:35:41.329Z,5.80
2023-02-13T11:38:26.612Z,5.90
2023-02-13T11:41:15.094Z,5.80
2023-02-13T11:44:02.001Z,5.80
2023-02-13T11:46:52.696Z,5.90
2023-02-13T11:49:44.098Z,6.00
2023-02-13T11:52:35.172Z,6.10
2023-02-13T11:55:29.028Z,6.20
2023-02-13T11:58:14.029Z,6.10
2023-02-13T12:01:21.170Z,6.30
2023-02-13T12:04:18.085Z,6.30
2023-02-13T12:07:12.230Z,6.40
2023-02-13T12:10:06.026Z,6.60
2023-02-13T12:13:13.302Z,6.90
2023-02-13T12:16:34.261Z,7.20
2023-02-13T12:19:29.747Z,7.40
2023-02-13T12:22:30.091Z,7.60
2023-02-13T12:25:25.190Z,7.80
2023-02-13T12:31:33.039Z,8.30
2023-02-13T12:34:48.853Z,8.60
2023-02-13T12:37:46.043Z,8.70
2023-02-13T12:40:42.387Z,8.80
2023-02-13T12:43:50.016Z,9.00
2023-02-13T12:46:45.745Z,9.20
2023-02-13T12:49:59.210Z,9.60
2023-02-13T12:52:56.523Z,9.70
2023-02-13T12:56:17.334Z,9.70
2023-02-13T12:59:22.324Z,9.80
2023-02-13T13:02:42.830Z,9.60
2023-02-13T13:05:58.798Z,9.30
2023-02-13T13:09:10.405Z,9.40
2023-02-13T13:12:14.018Z,9.50
2023-02-13T13:15:26.963Z,9.70
2023-02-13T13:18:31.117Z,9.90
2023-02-13T13:21:22.432Z,10.20
2023-02-13T13:24:27.790Z,10.40
2023-02-13T13:27:25.229Z,10.70
2023-02-13T13:30:37.734Z,10.70
2023-02-13T13:33:25.393Z,10.70
2023-02-13T13:36:25.745Z,11.10
2023-02-13T13:39:21.592Z,11.40
2023-02-13T13:42:33.100Z,11.70
2023-02-13T13:45:27.872Z,12.00
2023-02-13T13:48:50.370Z,12.20
2023-02-13T13:51:35.812Z,12.40
2023-02-13T13:54:35.455Z,12.50
2023-02-13T13:57:25.353Z,12.80
2023-02-13T14:00:13.622Z,12.80
2023-02-13T14:02:59.094Z,13.00
2023-02-13T14:06:00.550Z,13.00
2023-02-13T14:08:45.721Z,13.20
2023-02-13T14:11:33.841Z,13.40
2023-02-13T14:14:28.079Z,13.50
2023-02-13T14:17:16.047Z,13.60
2023-02-13T14:20:01.734Z,13.60
2023-02-13T14:22:47.266Z,13.70
2023-02-13T14:25:32.857Z,13.80
2023-02-13T14:28:25.346Z,13.90
2023-02-13T14:31:22.486Z,13.90
2023-02-13T14:34:18.262Z,13.80
2023-02-13T14:37:20.705Z,14.00
2023-02-13T14:40:12.119Z,13.90
2023-02-13T14:42:59.097Z,14.00
2023-02-13T14:45:58.853Z,14.10
2023-02-13T14:49:11.564Z,13.90
2023-02-13T14:52:04.353Z,13.90
2023-02-13T14:55:10.593Z,14.00
2023-02-13T14:58:28.838Z,14.00
2023-02-13T15:01:37.321Z,14.00
2023-02-13T15:04:43.769Z,14.10
2023-02-13T15:07:33.293Z,14.10
2023-02-13T15:10:40.575Z,14.20
2023-02-13T15:13:40.603Z,14.10
2023-02-13T15:16:26.502Z,14.00
2023-02-13T15:19:17.724Z,13.90
2023-02-13T15:22:05.534Z,13.90
2023-02-13T15:24:51.085Z,13.90
2023-02-13T15:27:42.614Z,13.90
2023-02-13T15:30:30.811Z,13.90
2023-02-13T15:33:20.312Z,13.80
2023-02-13T15:36:06.827Z,13.70
2023-02-13T15:39:09.766Z,13.60
2023-02-13T15:42:01.391Z,13.60
2023-02-13T15:44:49.533Z,13.40
2023-02-13T15:47:36.473Z,13.20
2023-02-13T15:50:35.208Z,12.90
2023-02-13T15:53:21.304Z,12.80
2023-02-13T15:56:06.451Z,12.60
2023-02-13T15:58:53.586Z,12.50
2023-02-13T16:01:43.397Z,12.20
2023-02-13T16:04:30.225Z,11.80
2023-02-13T16:07:15.581Z,11.80
2023-02-13T16:10:26.066Z,11.60
2023-02-13T16:13:17.795Z,11.50
2023-02-13T16:16:10.419Z,11.30
2023-02-13T16:18:55.969Z,11.10
2023-02-13T16:21:41.588Z,10.90
2023-02-13T16:24:27.577Z,10.70
2023-02-13T16:27:16.974Z,10.50
2023-02-13T16:30:07.740Z,10.40
2023-02-13T16:33:14.789Z,10.20
2023-02-13T16:36:16.871Z,10.10
2023-02-13T16:39:17.133Z,9.90
2023-02-13T16:42:02.421Z,10.10
2023-02-13T16:44:47.985Z,9.90
2023-02-13T16:47:33.438Z,9.70
2023-02-13T16:50:19.009Z,9.50
2023-02-13T16:53:04.894Z,9.20
2023-02-13T16:56:01.634Z,9.20
2023-02-13T16:58:46.815Z,9.10
2023-02-13T17:01:32.393Z,8.90
2023-02-13T17:04:27.065Z,8.90
2023-02-13T17:07:14.940Z,8.80
2023-02-13T17:10:21.832Z,8.60
2023-02-13T17:13:12.766Z,8.60
2023-02-13T17:15:59.346Z,8.50
2023-02-13T17:18:44.827Z,8.40
2023-02-13T17:21:30.125Z,8.30
2023-02-13T17:24:18.297Z,8.20
2023-02-13T17:27:03.375Z,8.20
2023-02-13T17:29:48.726Z,8.10
2023-02-13T17:32:34.270Z,8.00
2023-02-13T17:35:19.701Z,7.90
2023-02-13T17:38:06.295Z,7.90
2023-02-13T17:40:51.793Z,7.90
2023-02-13T17:43:37.238Z,7.80
2023-02-13T17:46:22.762Z,7.80
2023-02-13T17:49:08.278Z,7.70
2023-02-13T17:51:54.163Z,7.60
2023-02-13T17:54:39.397Z,7.60
2023-02-13T17:57:24.986Z,7.50
2023-02-13T18:00:10.985Z,7.60
2023-02-13T18:02:56.948Z,7.40
2023-02-13T18:05:42.282Z,7.30
2023-02-13T18:08:27.713Z,7.20
2023-02-13T18:11:13.390Z,7.10
2023-02-13T18:13:58.311Z,7.00
2023-02-13T18:16:45.284Z,6.90
2023-02-13T18:19:30.493Z,6.90
2023-02-13T18:22:16.051Z,6.80
2023-02-13T18:25:01.811Z,6.70
2023-02-13T18:27:48.574Z,6.70
2023-02-13T18:30:33.924Z,6.60
2023-02-13T18:33:19.331Z,6.80
2023-02-13T18:36:04.946Z,6.70
2023-02-13T18:38:52.461Z,6.70
2023-02-13T18:41:37.620Z,6.60
2023-02-13T18:44:28.351Z,6.60
2023-02-13T18:47:14.042Z,6.60
2023-02-13T18:49:59.350Z,6.60
2023-02-13T18:52:44.850Z,6.50
2023-02-13T18:55:29.864Z,6.50
2023-02-13T18:58:15.290Z,6.40
2023-02-13T19:01:11.463Z,6.30
2023-02-13T19:03:56.884Z,6.30
2023-02-13T19:06:43.869Z,6.20
2023-02-13T19:09:29.343Z,6.10
2023-02-13T19:12:14.730Z,6.10
2023-02-13T19:14:59.983Z,6.10
2023-02-13T19:17:45.762Z,6.00
2023-02-13T19:20:31.017Z,6.00
2023-02-13T19:23:16.331Z,6.00
2023-02-13T19:26:10.037Z,5.90
2023-02-13T19:28:57.204Z,5.80
2023-02-13T19:31:42.716Z,5.70
2023-02-13T19:34:28.044Z,5.70
2023-02-13T19:37:13.610Z,5.70
2023-02-13T19:39:59.045Z,5.60
2023-02-13T19:42:44.337Z,5.50
2023-02-13T19:45:29.780Z,5.50
2023-02-13T19:48:15.572Z,5.50
2023-02-13T19:51:09.271Z,5.40
2023-02-13T19:54:06.504Z,5.40
2023-02-13T19:56:51.514Z,5.40
2023-02-13T19:59:36.966Z,5.50
2023-02-13T20:02:22.682Z,5.50
2023-02-13T20:05:08.774Z,5.50
2023-02-13T20:07:53.965Z,5.40
2023-02-13T20:10:45.295Z,5.40
2023-02-13T20:13:31.948Z,5.40
2023-02-13T20:16:18.331Z,5.40
2023-02-13T20:19:07.514Z,5.40
2023-02-13T20:21:52.982Z,5.40
2023-02-13T20:24:38.064Z,5.40
2023-02-13T20:27:23.449Z,5.30
2023-02-13T20:30:10.450Z,5.30
2023-02-13T20:32:56.097Z,5.30
2023-02-13T20:35:41.454Z,5.20
2023-02-13T20:38:26.993Z,5.20
2023-02-13T20:41:24.938Z,5.20
2023-02-13T20:46:59.584Z,5.10
2023-02-13T20:49:45.612Z,5.10
2023-02-13T20:52:30.970Z,5.00
2023-02-13T20:55:16.416Z,4.90
2023-02-13T20:58:01.903Z,5.00
2023-02-13T21:00:47.300Z,5.00
2023-02-13T21:03:32.576Z,4.90
2023-02-13T21:06:17.957Z,4.90
2023-02-13T21:09:06.492Z,4.90
2023-02-13T21:11:52.377Z,4.90
2023-02-13T21:14:39.845Z,4.90
2023-02-13T21:17:25.570Z,4.80
2023-02-13T21:20:11.615Z,4.80
2023-02-13T21:22:59.933Z,4.80
2023-02-13T21:25:45.602Z,4.90
2023-02-13T21:28:32.699Z,4.80
2023-02-13T21:31:26.026Z,4.80
2023-02-13T21:34:13.934Z,4.80
2023-02-13T21:37:00.989Z,4.80
2023-02-13T21:39:48.099Z,4.80
2023-02-13T21:42:33.877Z,4.70
2023-02-13T21:45:19.936Z,4.60
2023-02-13T21:48:05.376Z,4.60
2023-02-13T21:50:50.794Z,4.60
2023-02-13T21:53:36.228Z,4.70
2023-02-13T21:56:24.323Z,4.80
2023-02-13T21:59:14.412Z,4.70
2023-02-13T22:02:00.127Z,4.70
2023-02-13T22:04:45.551Z,4.70
2023-02-13T22:07:30.831Z,4.70
2023-02-13T22:10:16.244Z,4.80
2023-02-13T22:13:01.829Z,4.70
2023-02-13T22:15:47.004Z,4.70
2023-02-13T22:18:34.510Z,4.70
2023-02-13T22:21:22.255Z,4.70
2023-02-13T22:24:07.230Z,4.70
2023-02-13T22:26:52.499Z,4.70
2023-02-13T22:29:40.580Z,4.60
2023-02-13T22:32:26.106Z,4.60
2023-02-13T22:35:11.401Z,4.60
2023-02-13T22:37:57.808Z,4.60
2023-02-13T22:40:43.153Z,4.60
2023-02-13T22:43:28.478Z,4.60
2023-02-13T22:51:45.452Z,4.50
2023-02-13T22:54:30.929Z,4.60
2023-02-13T22:57:16.291Z,4.50
2023-02-13T23:00:01.801Z,4.50
2023-02-13T23:05:32.990Z,4.50
2023-02-13T23:08:18.301Z,4.40
2023-02-13T23:11:30.837Z,4.30
2023-02-13T23:14:16.270Z,4.30
2023-02-13T23:17:20.107Z,4.30
2023-02-13T23:20:06.176Z,4.20
2023-02-13T23:22:52.525Z,4.10
2023-02-13T23:25:38.794Z,4.10
2023-02-13T23:28:23.964Z,4.10
2023-02-13T23:31:09.442Z,4.10
2023-02-13T23:33:54.738Z,4.10
2023-02-13T23:36:40.137Z,4.00
2023-02-13T23:39:25.604Z,4.00
2023-02-13T23:42:10.979Z,4.00
2023-02-13T23:44:56.396Z,4.00
2023-02-13T23:47:42.037Z,4.10
2023-02-13T23:50:27.269Z,4.00
2023-02-13T23:53:12.510Z,4.00
2023-02-13T23:55:57.892Z,3.90
2023-02-13T23:58:43.210Z,3.90
